sensor_id;sensor_type;location;lat;lon;timestamp;P1;durP1;ratioP1;P2;durP2;ratioP2
7965;SDS011;4028;43.272;26.932;2022-07-29T00:01:42;5.30;;;4.60;;
7965;SDS011;4028;43.272;26.932;2022-07-29T00:04:08;5.57;;;4.40;;
7965;SDS011;4028;43.272;26.932;2022-07-29T00:06:33;6.25;;;4.75;;
7965;SDS011;4028;43.272;26.932;2022-07-29T00:08:59;4.90;;;3.92;;
7965;SDS011;4028;43.272;26.932;2022-07-29T00:11:24;4.18;;;3.83;;
7965;SDS011;4028;43.272;26.932;2022-07-29T00:13:50;4.45;;;3.70;;
7965;SDS011;4028;43.272;26.932;2022-07-29T00:16:15;4.03;;;3.70;;
7965;SDS011;4028;43.272;26.932;2022-07-29T00:18:41;3.80;;;3.50;;
7965;SDS011;4028;43.272;26.932;2022-07-29T00:21:06;4.72;;;3.75;;
7965;SDS011;4028;43.272;26.932;2022-07-29T00:23:32;5.25;;;3.70;;
7965;SDS011;4028;43.272;26.932;2022-07-29T00:25:57;5.38;;;4.00;;
7965;SDS011;4028;43.272;26.932;2022-07-29T00:28:22;4.15;;;3.75;;
7965;SDS011;4028;43.272;26.932;2022-07-29T00:30:48;4.15;;;3.75;;
7965;SDS011;4028;43.272;26.932;2022-07-29T00:33:14;5.55;;;3.70;;
7965;SDS011;4028;43.272;26.932;2022-07-29T00:35:39;3.95;;;3.40;;
7965;SDS011;4028;43.272;26.932;2022-07-29T00:38:15;5.93;;;3.83;;
7965;SDS011;4028;43.272;26.932;2022-07-29T00:40:43;3.90;;;3.50;;
7965;SDS011;4028;43.272;26.932;2022-07-29T00:43:10;4.47;;;3.35;;
7965;SDS011;4028;43.272;26.932;2022-07-29T00:45:37;3.58;;;3.28;;
7965;SDS011;4028;43.272;26.932;2022-07-29T00:48:03;3.72;;;3.40;;
7965;SDS011;4028;43.272;26.932;2022-07-29T00:50:30;5.75;;;3.42;;
7965;SDS011;4028;43.272;26.932;2022-07-29T00:52:56;5.63;;;3.60;;
7965;SDS011;4028;43.272;26.932;2022-07-29T00:55:21;4.82;;;3.10;;
7965;SDS011;4028;43.272;26.932;2022-07-29T00:57:47;7.05;;;3.35;;
7965;SDS011;4028;43.272;26.932;2022-07-29T01:00:19;3.50;;;3.20;;
7965;SDS011;4028;43.272;26.932;2022-07-29T01:02:46;4.43;;;3.60;;
7965;SDS011;4028;43.272;26.932;2022-07-29T01:05:13;4.38;;;3.10;;
7965;SDS011;4028;43.272;26.932;2022-07-29T01:07:41;5.30;;;3.40;;
7965;SDS011;4028;43.272;26.932;2022-07-29T01:10:07;4.32;;;3.40;;
7965;SDS011;4028;43.272;26.932;2022-07-29T01:12:35;3.45;;;2.92;;
7965;SDS011;4028;43.272;26.932;2022-07-29T01:15:03;4.15;;;3.80;;
7965;SDS011;4028;43.272;26.932;2022-07-29T01:17:52;4.53;;;3.47;;
7965;SDS011;4028;43.272;26.932;2022-07-29T01:20:31;4.95;;;3.13;;
7965;SDS011;4028;43.272;26.932;2022-07-29T01:26:45;4.22;;;3.28;;
7965;SDS011;4028;43.272;26.932;2022-07-29T01:32:07;4.07;;;3.28;;
7965;SDS011;4028;43.272;26.932;2022-07-29T01:34:50;5.45;;;3.10;;
7965;SDS011;4028;43.272;26.932;2022-07-29T01:39:45;4.40;;;3.30;;
7965;SDS011;4028;43.272;26.932;2022-07-29T01:42:14;4.45;;;3.65;;
7965;SDS011;4028;43.272;26.932;2022-07-29T01:45:06;4.70;;;3.47;;
7965;SDS011;4028;43.272;26.932;2022-07-29T01:47:42;5.47;;;3.88;;
7965;SDS011;4028;43.272;26.932;2022-07-29T01:50:12;3.50;;;3.20;;
7965;SDS011;4028;43.272;26.932;2022-07-29T01:52:49;7.18;;;3.92;;
7965;SDS011;4028;43.272;26.932;2022-07-29T01:55:19;3.95;;;3.53;;
7965;SDS011;4028;43.272;26.932;2022-07-29T01:57:47;3.80;;;3.30;;
7965;SDS011;4028;43.272;26.932;2022-07-29T02:00:14;3.70;;;3.40;;
7965;SDS011;4028;43.272;26.932;2022-07-29T02:02:42;3.65;;;3.35;;
7965;SDS011;4028;43.272;26.932;2022-07-29T02:05:10;3.65;;;3.35;;
7965;SDS011;4028;43.272;26.932;2022-07-29T02:07:43;3.80;;;3.50;;
7965;SDS011;4028;43.272;26.932;2022-07-29T02:10:11;4.00;;;3.40;;
7965;SDS011;4028;43.272;26.932;2022-07-29T02:12:38;3.90;;;3.35;;
7965;SDS011;4028;43.272;26.932;2022-07-29T02:15:07;4.22;;;3.13;;
7965;SDS011;4028;43.272;26.932;2022-07-29T02:17:35;3.95;;;3.38;;
7965;SDS011;4028;43.272;26.932;2022-07-29T02:20:06;4.68;;;3.40;;
7965;SDS011;4028;43.272;26.932;2022-07-29T02:22:34;4.57;;;3.30;;
7965;SDS011;4028;43.272;26.932;2022-07-29T02:25:03;3.67;;;3.38;;
7965;SDS011;4028;43.272;26.932;2022-07-29T02:27:29;4.45;;;3.55;;
7965;SDS011;4028;43.272;26.932;2022-07-29T02:29:58;6.38;;;3.72;;
7965;SDS011;4028;43.272;26.932;2022-07-29T02:32:26;7.75;;;3.42;;
7965;SDS011;4028;43.272;26.932;2022-07-29T02:34:53;8.10;;;3.72;;
7965;SDS011;4028;43.272;26.932;2022-07-29T02:37:20;4.90;;;3.30;;
7965;SDS011;4028;43.272;26.932;2022-07-29T02:39:47;5.25;;;3.60;;
7965;SDS011;4028;43.272;26.932;2022-07-29T02:42:16;7.07;;;4.13;;
7965;SDS011;4028;43.272;26.932;2022-07-29T02:44:43;7.35;;;3.70;;
7965;SDS011;4028;43.272;26.932;2022-07-29T02:47:36;4.22;;;3.83;;
7965;SDS011;4028;43.272;26.932;2022-07-29T02:50:14;4.20;;;3.53;;
7965;SDS011;4028;43.272;26.932;2022-07-29T02:52:57;4.40;;;3.45;;
7965;SDS011;4028;43.272;26.932;2022-07-29T02:55:36;4.15;;;3.40;;
7965;SDS011;4028;43.272;26.932;2022-07-29T02:58:07;4.65;;;3.40;;
7965;SDS011;4028;43.272;26.932;2022-07-29T03:00:36;4.63;;;3.85;;
7965;SDS011;4028;43.272;26.932;2022-07-29T03:03:06;4.30;;;3.60;;
7965;SDS011;4028;43.272;26.932;2022-07-29T03:05:36;5.13;;;3.78;;
7965;SDS011;4028;43.272;26.932;2022-07-29T03:08:03;6.65;;;3.75;;
7965;SDS011;4028;43.272;26.932;2022-07-29T03:10:30;10.07;;;3.85;;
7965;SDS011;4028;43.272;26.932;2022-07-29T03:12:56;6.90;;;3.88;;
7965;SDS011;4028;43.272;26.932;2022-07-29T03:15:22;6.90;;;4.28;;
7965;SDS011;4028;43.272;26.932;2022-07-29T03:17:49;7.60;;;4.05;;
7965;SDS011;4028;43.272;26.932;2022-07-29T03:20:15;5.35;;;4.05;;
7965;SDS011;4028;43.272;26.932;2022-07-29T03:22:43;8.32;;;4.07;;
7965;SDS011;4028;43.272;26.932;2022-07-29T03:25:12;5.47;;;3.88;;
7965;SDS011;4028;43.272;26.932;2022-07-29T03:27:39;5.50;;;3.90;;
7965;SDS011;4028;43.272;26.932;2022-07-29T03:30:05;6.88;;;4.00;;
7965;SDS011;4028;43.272;26.932;2022-07-29T03:32:32;4.70;;;3.90;;
7965;SDS011;4028;43.272;26.932;2022-07-29T03:34:57;6.00;;;4.10;;
7965;SDS011;4028;43.272;26.932;2022-07-29T03:37:23;8.40;;;5.38;;
7965;SDS011;4028;43.272;26.932;2022-07-29T03:39:49;8.25;;;5.18;;
7965;SDS011;4028;43.272;26.932;2022-07-29T03:42:18;5.38;;;4.32;;
7965;SDS011;4028;43.272;26.932;2022-07-29T03:44:47;5.47;;;4.38;;
7965;SDS011;4028;43.272;26.932;2022-07-29T03:47:14;6.28;;;4.30;;
7965;SDS011;4028;43.272;26.932;2022-07-29T03:49:40;5.57;;;4.40;;
7965;SDS011;4028;43.272;26.932;2022-07-29T03:52:07;7.35;;;4.88;;
7965;SDS011;4028;43.272;26.932;2022-07-29T03:54:33;4.70;;;4.30;;
7965;SDS011;4028;43.272;26.932;2022-07-29T03:56:59;7.78;;;4.80;;
7965;SDS011;4028;43.272;26.932;2022-07-29T03:59:27;5.68;;;4.30;;
7965;SDS011;4028;43.272;26.932;2022-07-29T04:01:52;7.97;;;5.50;;
7965;SDS011;4028;43.272;26.932;2022-07-29T04:04:21;12.85;;;5.45;;
7965;SDS011;4028;43.272;26.932;2022-07-29T04:06:47;6.25;;;4.85;;
7965;SDS011;4028;43.272;26.932;2022-07-29T04:09:12;7.80;;;5.72;;
7965;SDS011;4028;43.272;26.932;2022-07-29T04:11:38;9.32;;;5.60;;
7965;SDS011;4028;43.272;26.932;2022-07-29T04:14:05;10.73;;;6.35;;
7965;SDS011;4028;43.272;26.932;2022-07-29T04:16:31;7.03;;;5.90;;
7965;SDS011;4028;43.272;26.932;2022-07-29T04:18:57;6.60;;;5.93;;
7965;SDS011;4028;43.272;26.932;2022-07-29T04:21:22;7.22;;;5.60;;
7965;SDS011;4028;43.272;26.932;2022-07-29T04:23:48;8.98;;;4.95;;
7965;SDS011;4028;43.272;26.932;2022-07-29T04:26:17;5.65;;;4.35;;
7965;SDS011;4028;43.272;26.932;2022-07-29T04:28:43;7.55;;;4.57;;
7965;SDS011;4028;43.272;26.932;2022-07-29T04:31:09;7.55;;;4.05;;
7965;SDS011;4028;43.272;26.932;2022-07-29T04:33:35;4.97;;;3.78;;
7965;SDS011;4028;43.272;26.932;2022-07-29T04:36:00;6.85;;;3.72;;
7965;SDS011;4028;43.272;26.932;2022-07-29T04:38:26;6.68;;;3.63;;
7965;SDS011;4028;43.272;26.932;2022-07-29T04:40:51;4.28;;;3.10;;
7965;SDS011;4028;43.272;26.932;2022-07-29T04:43:17;5.30;;;3.15;;
7965;SDS011;4028;43.272;26.932;2022-07-29T04:45:42;5.72;;;3.60;;
7965;SDS011;4028;43.272;26.932;2022-07-29T04:48:08;4.40;;;3.38;;
7965;SDS011;4028;43.272;26.932;2022-07-29T04:50:33;4.07;;;3.17;;
7965;SDS011;4028;43.272;26.932;2022-07-29T04:52:59;3.75;;;3.40;;
7965;SDS011;4028;43.272;26.932;2022-07-29T04:55:25;5.05;;;3.97;;
7965;SDS011;4028;43.272;26.932;2022-07-29T04:57:51;4.55;;;3.60;;
7965;SDS011;4028;43.272;26.932;2022-07-29T05:00:16;6.85;;;3.38;;
7965;SDS011;4028;43.272;26.932;2022-07-29T05:02:42;4.55;;;3.60;;
7965;SDS011;4028;43.272;26.932;2022-07-29T05:05:07;5.30;;;3.13;;
7965;SDS011;4028;43.272;26.932;2022-07-29T05:07:33;6.05;;;3.25;;
7965;SDS011;4028;43.272;26.932;2022-07-29T05:09:59;4.55;;;3.30;;
7965;SDS011;4028;43.272;26.932;2022-07-29T05:12:24;3.63;;;3.30;;
7965;SDS011;4028;43.272;26.932;2022-07-29T05:14:50;4.38;;;3.28;;
7965;SDS011;4028;43.272;26.932;2022-07-29T05:17:16;3.53;;;3.22;;
7965;SDS011;4028;43.272;26.932;2022-07-29T05:19:42;3.58;;;3.10;;
7965;SDS011;4028;43.272;26.932;2022-07-29T05:22:07;9.13;;;3.20;;
7965;SDS011;4028;43.272;26.932;2022-07-29T05:24:32;3.03;;;2.83;;
7965;SDS011;4028;43.272;26.932;2022-07-29T05:26:58;5.25;;;3.45;;
7965;SDS011;4028;43.272;26.932;2022-07-29T05:29:23;5.30;;;3.22;;
7965;SDS011;4028;43.272;26.932;2022-07-29T05:31:49;4.35;;;3.33;;
7965;SDS011;4028;43.272;26.932;2022-07-29T05:34:16;3.47;;;3.17;;
7965;SDS011;4028;43.272;26.932;2022-07-29T05:36:42;8.43;;;3.35;;
7965;SDS011;4028;43.272;26.932;2022-07-29T05:39:07;3.60;;;3.15;;
7965;SDS011;4028;43.272;26.932;2022-07-29T05:41:32;4.05;;;3.47;;
7965;SDS011;4028;43.272;26.932;2022-07-29T05:43:58;9.48;;;3.47;;
7965;SDS011;4028;43.272;26.932;2022-07-29T05:46:23;3.38;;;3.17;;
7965;SDS011;4028;43.272;26.932;2022-07-29T05:48:49;3.40;;;3.15;;
7965;SDS011;4028;43.272;26.932;2022-07-29T05:51:14;3.63;;;3.30;;
7965;SDS011;4028;43.272;26.932;2022-07-29T05:53:40;3.63;;;3.20;;
7965;SDS011;4028;43.272;26.932;2022-07-29T05:56:06;5.10;;;3.38;;
7965;SDS011;4028;43.272;26.932;2022-07-29T05:58:32;3.80;;;3.08;;
7965;SDS011;4028;43.272;26.932;2022-07-29T06:00:58;5.85;;;2.67;;
7965;SDS011;4028;43.272;26.932;2022-07-29T06:03:26;4.60;;;3.60;;
7965;SDS011;4028;43.272;26.932;2022-07-29T06:05:52;5.22;;;3.85;;
7965;SDS011;4028;43.272;26.932;2022-07-29T06:08:18;6.43;;;4.13;;
7965;SDS011;4028;43.272;26.932;2022-07-29T06:10:43;6.13;;;3.30;;
7965;SDS011;4028;43.272;26.932;2022-07-29T06:13:10;4.43;;;3.28;;
7965;SDS011;4028;43.272;26.932;2022-07-29T06:15:36;4.25;;;2.95;;
7965;SDS011;4028;43.272;26.932;2022-07-29T06:18:01;5.82;;;3.17;;
7965;SDS011;4028;43.272;26.932;2022-07-29T06:20:28;4.57;;;3.38;;
7965;SDS011;4028;43.272;26.932;2022-07-29T06:22:57;5.63;;;3.53;;
7965;SDS011;4028;43.272;26.932;2022-07-29T06:25:22;5.57;;;3.75;;
7965;SDS011;4028;43.272;26.932;2022-07-29T06:27:48;4.38;;;3.72;;
7965;SDS011;4028;43.272;26.932;2022-07-29T06:30:13;4.85;;;3.60;;
7965;SDS011;4028;43.272;26.932;2022-07-29T06:32:39;3.80;;;3.38;;
7965;SDS011;4028;43.272;26.932;2022-07-29T06:35:05;3.78;;;3.38;;
7965;SDS011;4028;43.272;26.932;2022-07-29T06:37:31;3.80;;;3.40;;
7965;SDS011;4028;43.272;26.932;2022-07-29T06:39:56;4.95;;;3.75;;
7965;SDS011;4028;43.272;26.932;2022-07-29T06:42:43;4.60;;;3.70;;
7965;SDS011;4028;43.272;26.932;2022-07-29T06:45:10;7.90;;;3.72;;
7965;SDS011;4028;43.272;26.932;2022-07-29T06:47:36;6.55;;;3.80;;
7965;SDS011;4028;43.272;26.932;2022-07-29T06:50:02;7.38;;;3.67;;
7965;SDS011;4028;43.272;26.932;2022-07-29T06:52:28;5.35;;;3.67;;
7965;SDS011;4028;43.272;26.932;2022-07-29T06:54:53;9.10;;;3.50;;
7965;SDS011;4028;43.272;26.932;2022-07-29T06:57:20;4.88;;;3.50;;
7965;SDS011;4028;43.272;26.932;2022-07-29T06:59:46;4.35;;;3.30;;
7965;SDS011;4028;43.272;26.932;2022-07-29T07:02:11;4.18;;;3.78;;
7965;SDS011;4028;43.272;26.932;2022-07-29T07:04:37;7.65;;;3.90;;
7965;SDS011;4028;43.272;26.932;2022-07-29T07:07:02;9.02;;;3.95;;
7965;SDS011;4028;43.272;26.932;2022-07-29T07:09:27;10.15;;;3.90;;
7965;SDS011;4028;43.272;26.932;2022-07-29T07:11:53;7.18;;;3.78;;
7965;SDS011;4028;43.272;26.932;2022-07-29T07:14:19;5.07;;;3.67;;
7965;SDS011;4028;43.272;26.932;2022-07-29T07:16:44;6.80;;;3.60;;
7965;SDS011;4028;43.272;26.932;2022-07-29T07:19:09;7.85;;;3.95;;
7965;SDS011;4028;43.272;26.932;2022-07-29T07:21:35;6.85;;;3.30;;
7965;SDS011;4028;43.272;26.932;2022-07-29T07:24:00;7.93;;;3.60;;
7965;SDS011;4028;43.272;26.932;2022-07-29T07:26:26;4.28;;;3.53;;
7965;SDS011;4028;43.272;26.932;2022-07-29T07:28:52;5.38;;;3.30;;
7965;SDS011;4028;43.272;26.932;2022-07-29T07:31:18;6.00;;;4.10;;
7965;SDS011;4028;43.272;26.932;2022-07-29T07:33:43;3.90;;;3.53;;
7965;SDS011;4028;43.272;26.932;2022-07-29T07:36:09;4.75;;;3.40;;
7965;SDS011;4028;43.272;26.932;2022-07-29T07:38:34;6.80;;;4.13;;
7965;SDS011;4028;43.272;26.932;2022-07-29T07:41:00;8.40;;;4.07;;
7965;SDS011;4028;43.272;26.932;2022-07-29T07:43:26;6.50;;;4.30;;
7965;SDS011;4028;43.272;26.932;2022-07-29T07:45:52;7.03;;;4.03;;
7965;SDS011;4028;43.272;26.932;2022-07-29T07:48:17;6.15;;;3.90;;
7965;SDS011;4028;43.272;26.932;2022-07-29T07:50:43;8.77;;;3.75;;
7965;SDS011;4028;43.272;26.932;2022-07-29T07:53:09;7.22;;;4.10;;
7965;SDS011;4028;43.272;26.932;2022-07-29T07:55:39;5.75;;;3.70;;
7965;SDS011;4028;43.272;26.932;2022-07-29T07:58:08;4.53;;;3.53;;
7965;SDS011;4028;43.272;26.932;2022-07-29T08:00:34;5.32;;;3.67;;
7965;SDS011;4028;43.272;26.932;2022-07-29T08:02:59;9.55;;;3.88;;
7965;SDS011;4028;43.272;26.932;2022-07-29T08:05:25;6.35;;;3.85;;
7965;SDS011;4028;43.272;26.932;2022-07-29T08:07:50;5.07;;;3.20;;
7965;SDS011;4028;43.272;26.932;2022-07-29T08:10:16;3.85;;;3.55;;
7965;SDS011;4028;43.272;26.932;2022-07-29T08:13:04;7.53;;;4.07;;
7965;SDS011;4028;43.272;26.932;2022-07-29T08:15:31;4.50;;;3.95;;
7965;SDS011;4028;43.272;26.932;2022-07-29T08:17:56;7.75;;;3.78;;
7965;SDS011;4028;43.272;26.932;2022-07-29T08:20:22;5.40;;;3.40;;
7965;SDS011;4028;43.272;26.932;2022-07-29T08:22:47;5.05;;;3.95;;
7965;SDS011;4028;43.272;26.932;2022-07-29T08:25:13;3.88;;;3.50;;
7965;SDS011;4028;43.272;26.932;2022-07-29T08:27:38;4.50;;;3.15;;
7965;SDS011;4028;43.272;26.932;2022-07-29T08:30:04;3.50;;;3.20;;
7965;SDS011;4028;43.272;26.932;2022-07-29T08:32:30;4.07;;;3.40;;
7965;SDS011;4028;43.272;26.932;2022-07-29T08:34:56;7.20;;;3.30;;
7965;SDS011;4028;43.272;26.932;2022-07-29T08:37:21;3.90;;;3.13;;
7965;SDS011;4028;43.272;26.932;2022-07-29T08:39:47;7.00;;;3.60;;
7965;SDS011;4028;43.272;26.932;2022-07-29T08:42:12;4.57;;;3.45;;
7965;SDS011;4028;43.272;26.932;2022-07-29T08:44:38;4.65;;;3.80;;
7965;SDS011;4028;43.272;26.932;2022-07-29T08:47:04;3.78;;;3.47;;
7965;SDS011;4028;43.272;26.932;2022-07-29T08:49:32;3.85;;;3.30;;
7965;SDS011;4028;43.272;26.932;2022-07-29T08:51:58;6.25;;;3.55;;
7965;SDS011;4028;43.272;26.932;2022-07-29T08:54:25;5.60;;;3.60;;
7965;SDS011;4028;43.272;26.932;2022-07-29T08:56:51;3.83;;;3.63;;
7965;SDS011;4028;43.272;26.932;2022-07-29T08:59:20;4.00;;;3.58;;
7965;SDS011;4028;43.272;26.932;2022-07-29T09:01:50;6.53;;;3.42;;
7965;SDS011;4028;43.272;26.932;2022-07-29T09:04:17;5.38;;;3.65;;
7965;SDS011;4028;43.272;26.932;2022-07-29T09:06:46;6.47;;;3.92;;
7965;SDS011;4028;43.272;26.932;2022-07-29T09:09:13;6.15;;;4.25;;
7965;SDS011;4028;43.272;26.932;2022-07-29T09:11:39;3.70;;;3.40;;
7965;SDS011;4028;43.272;26.932;2022-07-29T09:14:05;5.32;;;3.60;;
7965;SDS011;4028;43.272;26.932;2022-07-29T09:16:45;7.45;;;4.10;;
7965;SDS011;4028;43.272;26.932;2022-07-29T09:19:27;5.47;;;3.67;;
7965;SDS011;4028;43.272;26.932;2022-07-29T09:21:55;4.78;;;3.80;;
7965;SDS011;4028;43.272;26.932;2022-07-29T09:24:26;4.25;;;3.60;;
7965;SDS011;4028;43.272;26.932;2022-07-29T09:27:01;4.70;;;3.90;;
7965;SDS011;4028;43.272;26.932;2022-07-29T09:29:27;4.63;;;4.30;;
7965;SDS011;4028;43.272;26.932;2022-07-29T09:31:53;3.92;;;3.50;;
7965;SDS011;4028;43.272;26.932;2022-07-29T09:34:29;6.32;;;3.63;;
7965;SDS011;4028;43.272;26.932;2022-07-29T09:36:56;5.47;;;3.45;;
7965;SDS011;4028;43.272;26.932;2022-07-29T09:39:43;5.13;;;3.83;;
7965;SDS011;4028;43.272;26.932;2022-07-29T09:42:11;4.25;;;3.92;;
7965;SDS011;4028;43.272;26.932;2022-07-29T09:44:40;4.13;;;3.78;;
7965;SDS011;4028;43.272;26.932;2022-07-29T09:47:08;4.10;;;3.70;;
7965;SDS011;4028;43.272;26.932;2022-07-29T09:49:34;3.95;;;3.60;;
7965;SDS011;4028;43.272;26.932;2022-07-29T09:52:03;4.32;;;3.90;;
7965;SDS011;4028;43.272;26.932;2022-07-29T09:54:33;4.15;;;3.85;;
7965;SDS011;4028;43.272;26.932;2022-07-29T09:57:06;8.48;;;4.70;;
7965;SDS011;4028;43.272;26.932;2022-07-29T09:59:37;5.43;;;3.80;;
7965;SDS011;4028;43.272;26.932;2022-07-29T10:02:11;5.68;;;4.60;;
7965;SDS011;4028;43.272;26.932;2022-07-29T10:04:41;4.97;;;4.03;;
7965;SDS011;4028;43.272;26.932;2022-07-29T10:07:07;5.45;;;4.00;;
7965;SDS011;4028;43.272;26.932;2022-07-29T10:09:34;8.35;;;4.25;;
7965;SDS011;4028;43.272;26.932;2022-07-29T10:12:04;4.55;;;3.80;;
7965;SDS011;4028;43.272;26.932;2022-07-29T10:14:31;5.68;;;3.97;;
7965;SDS011;4028;43.272;26.932;2022-07-29T10:17:00;6.07;;;3.95;;
7965;SDS011;4028;43.272;26.932;2022-07-29T10:19:30;5.38;;;3.85;;
7965;SDS011;4028;43.272;26.932;2022-07-29T10:22:00;4.70;;;3.90;;
7965;SDS011;4028;43.272;26.932;2022-07-29T10:24:27;7.65;;;3.70;;
7965;SDS011;4028;43.272;26.932;2022-07-29T10:26:55;3.88;;;3.58;;
7965;SDS011;4028;43.272;26.932;2022-07-29T10:29:21;4.15;;;3.75;;
7965;SDS011;4028;43.272;26.932;2022-07-29T10:40:15;5.22;;;4.03;;
7965;SDS011;4028;43.272;26.932;2022-07-29T10:43:05;4.82;;;3.80;;
7965;SDS011;4028;43.272;26.932;2022-07-29T10:45:39;4.40;;;3.95;;
7965;SDS011;4028;43.272;26.932;2022-07-29T10:48:05;4.47;;;3.75;;
7965;SDS011;4028;43.272;26.932;2022-07-29T10:50:51;4.13;;;3.70;;
7965;SDS011;4028;43.272;26.932;2022-07-29T10:53:19;4.35;;;3.60;;
7965;SDS011;4028;43.272;26.932;2022-07-29T10:55:45;4.13;;;3.55;;
7965;SDS011;4028;43.272;26.932;2022-07-29T11:00:44;4.45;;;3.72;;
7965;SDS011;4028;43.272;26.932;2022-07-29T11:06:10;4.30;;;3.75;;
7965;SDS011;4028;43.272;26.932;2022-07-29T11:08:36;4.28;;;3.75;;
7965;SDS011;4028;43.272;26.932;2022-07-29T11:13:57;4.78;;;3.70;;
7965;SDS011;4028;43.272;26.932;2022-07-29T11:16:22;4.05;;;3.55;;
7965;SDS011;4028;43.272;26.932;2022-07-29T11:21:35;5.13;;;3.35;;
7965;SDS011;4028;43.272;26.932;2022-07-29T11:24:14;4.35;;;3.70;;
7965;SDS011;4028;43.272;26.932;2022-07-29T11:26:45;4.07;;;3.70;;
7965;SDS011;4028;43.272;26.932;2022-07-29T11:29:32;3.95;;;3.65;;
7965;SDS011;4028;43.272;26.932;2022-07-29T11:32:10;5.55;;;3.60;;
7965;SDS011;4028;43.272;26.932;2022-07-29T11:34:37;5.25;;;3.70;;
7965;SDS011;4028;43.272;26.932;2022-07-29T11:39:43;4.40;;;3.90;;
7965;SDS011;4028;43.272;26.932;2022-07-29T11:47:47;4.95;;;3.80;;
7965;SDS011;4028;43.272;26.932;2022-07-29T11:50:14;4.85;;;3.50;;
7965;SDS011;4028;43.272;26.932;2022-07-29T11:52:42;4.35;;;3.75;;
7965;SDS011;4028;43.272;26.932;2022-07-29T11:55:18;3.90;;;3.50;;
7965;SDS011;4028;43.272;26.932;2022-07-29T12:00:16;5.47;;;3.70;;
7965;SDS011;4028;43.272;26.932;2022-07-29T12:02:49;4.15;;;3.60;;
7965;SDS011;4028;43.272;26.932;2022-07-29T12:05:16;6.38;;;3.65;;
7965;SDS011;4028;43.272;26.932;2022-07-29T12:07:41;5.03;;;3.72;;
7965;SDS011;4028;43.272;26.932;2022-07-29T12:10:08;4.22;;;3.75;;
7965;SDS011;4028;43.272;26.932;2022-07-29T12:12:34;6.68;;;3.80;;
7965;SDS011;4028;43.272;26.932;2022-07-29T12:15:16;6.38;;;4.20;;
7965;SDS011;4028;43.272;26.932;2022-07-29T12:17:45;5.85;;;4.20;;
7965;SDS011;4028;43.272;26.932;2022-07-29T12:20:11;4.43;;;4.10;;
7965;SDS011;4028;43.272;26.932;2022-07-29T12:22:41;9.93;;;4.05;;
7965;SDS011;4028;43.272;26.932;2022-07-29T12:25:10;3.85;;;3.50;;
7965;SDS011;4028;43.272;26.932;2022-07-29T12:27:39;4.25;;;3.50;;
7965;SDS011;4028;43.272;26.932;2022-07-29T12:30:09;4.88;;;4.20;;
7965;SDS011;4028;43.272;26.932;2022-07-29T12:35:11;6.32;;;3.88;;
7965;SDS011;4028;43.272;26.932;2022-07-29T12:37:39;4.43;;;4.03;;
7965;SDS011;4028;43.272;26.932;2022-07-29T12:40:07;4.38;;;3.97;;
7965;SDS011;4028;43.272;26.932;2022-07-29T12:42:34;5.90;;;4.00;;
7965;SDS011;4028;43.272;26.932;2022-07-29T12:44:59;5.55;;;3.97;;
7965;SDS011;4028;43.272;26.932;2022-07-29T12:47:25;6.63;;;4.28;;
7965;SDS011;4028;43.272;26.932;2022-07-29T12:49:51;4.35;;;3.95;;
7965;SDS011;4028;43.272;26.932;2022-07-29T12:52:35;4.57;;;4.18;;
7965;SDS011;4028;43.272;26.932;2022-07-29T12:55:01;7.95;;;4.30;;
7965;SDS011;4028;43.272;26.932;2022-07-29T12:57:27;4.55;;;4.15;;
7965;SDS011;4028;43.272;26.932;2022-07-29T13:00:00;4.28;;;3.90;;
7965;SDS011;4028;43.272;26.932;2022-07-29T13:02:30;4.35;;;3.95;;
7965;SDS011;4028;43.272;26.932;2022-07-29T13:04:57;5.15;;;3.83;;
7965;SDS011;4028;43.272;26.932;2022-07-29T13:07:26;4.03;;;3.70;;
7965;SDS011;4028;43.272;26.932;2022-07-29T13:09:54;4.68;;;3.60;;
7965;SDS011;4028;43.272;26.932;2022-07-29T13:15:39;5.05;;;3.50;;
7965;SDS011;4028;43.272;26.932;2022-07-29T13:21:10;4.68;;;4.05;;
7965;SDS011;4028;43.272;26.932;2022-07-29T13:23:37;6.15;;;4.00;;
7965;SDS011;4028;43.272;26.932;2022-07-29T13:26:09;4.30;;;4.00;;
7965;SDS011;4028;43.272;26.932;2022-07-29T13:28:38;6.90;;;4.13;;
7965;SDS011;4028;43.272;26.932;2022-07-29T13:31:04;4.57;;;4.22;;
7965;SDS011;4028;43.272;26.932;2022-07-29T13:33:30;5.22;;;4.28;;
7965;SDS011;4028;43.272;26.932;2022-07-29T13:35:56;4.30;;;4.00;;
7965;SDS011;4028;43.272;26.932;2022-07-29T13:38:21;4.45;;;4.07;;
7965;SDS011;4028;43.272;26.932;2022-07-29T13:40:47;6.57;;;4.35;;
7965;SDS011;4028;43.272;26.932;2022-07-29T13:43:12;6.55;;;3.97;;
7965;SDS011;4028;43.272;26.932;2022-07-29T13:45:38;7.60;;;4.43;;
7965;SDS011;4028;43.272;26.932;2022-07-29T13:48:04;6.18;;;4.07;;
7965;SDS011;4028;43.272;26.932;2022-07-29T13:50:31;4.40;;;4.10;;
7965;SDS011;4028;43.272;26.932;2022-07-29T13:52:57;4.50;;;4.07;;
7965;SDS011;4028;43.272;26.932;2022-07-29T13:55:23;6.75;;;3.88;;
7965;SDS011;4028;43.272;26.932;2022-07-29T13:57:48;6.10;;;4.57;;
7965;SDS011;4028;43.272;26.932;2022-07-29T14:00:14;4.10;;;3.80;;
7965;SDS011;4028;43.272;26.932;2022-07-29T14:02:40;6.82;;;4.32;;
7965;SDS011;4028;43.272;26.932;2022-07-29T14:05:06;4.97;;;3.90;;
7965;SDS011;4028;43.272;26.932;2022-07-29T14:07:32;4.90;;;3.70;;
7965;SDS011;4028;43.272;26.932;2022-07-29T14:09:58;5.85;;;4.00;;
7965;SDS011;4028;43.272;26.932;2022-07-29T14:12:23;4.30;;;3.60;;
7965;SDS011;4028;43.272;26.932;2022-07-29T14:14:49;5.80;;;4.20;;
7965;SDS011;4028;43.272;26.932;2022-07-29T14:17:15;5.63;;;4.00;;
7965;SDS011;4028;43.272;26.932;2022-07-29T14:19:40;9.95;;;4.07;;
7965;SDS011;4028;43.272;26.932;2022-07-29T14:22:06;4.53;;;4.07;;
7965;SDS011;4028;43.272;26.932;2022-07-29T14:24:32;4.00;;;3.60;;
7965;SDS011;4028;43.272;26.932;2022-07-29T14:26:58;4.53;;;4.13;;
7965;SDS011;4028;43.272;26.932;2022-07-29T14:29:24;10.48;;;4.13;;
7965;SDS011;4028;43.272;26.932;2022-07-29T14:31:49;6.38;;;4.03;;
7965;SDS011;4028;43.272;26.932;2022-07-29T14:34:15;8.63;;;3.90;;
7965;SDS011;4028;43.272;26.932;2022-07-29T14:36:40;8.50;;;4.07;;
7965;SDS011;4028;43.272;26.932;2022-07-29T14:39:06;8.43;;;4.05;;
7965;SDS011;4028;43.272;26.932;2022-07-29T14:41:32;4.57;;;4.15;;
7965;SDS011;4028;43.272;26.932;2022-07-29T14:43:57;10.85;;;4.82;;
7965;SDS011;4028;43.272;26.932;2022-07-29T14:46:25;4.43;;;4.05;;
7965;SDS011;4028;43.272;26.932;2022-07-29T14:48:51;4.78;;;3.70;;
7965;SDS011;4028;43.272;26.932;2022-07-29T14:51:17;7.50;;;3.70;;
7965;SDS011;4028;43.272;26.932;2022-07-29T14:53:42;4.93;;;3.70;;
7965;SDS011;4028;43.272;26.932;2022-07-29T14:56:08;5.28;;;3.85;;
7965;SDS011;4028;43.272;26.932;2022-07-29T14:58:34;4.88;;;4.03;;
7965;SDS011;4028;43.272;26.932;2022-07-29T15:00:59;4.05;;;3.67;;
7965;SDS011;4028;43.272;26.932;2022-07-29T15:03:26;7.68;;;3.33;;
7965;SDS011;4028;43.272;26.932;2022-07-29T15:05:52;4.00;;;3.40;;
7965;SDS011;4028;43.272;26.932;2022-07-29T15:08:19;5.65;;;3.78;;
7965;SDS011;4028;43.272;26.932;2022-07-29T15:10:44;3.90;;;3.60;;
7965;SDS011;4028;43.272;26.932;2022-07-29T15:13:10;4.03;;;3.50;;
7965;SDS011;4028;43.272;26.932;2022-07-29T15:15:35;4.13;;;3.72;;
7965;SDS011;4028;43.272;26.932;2022-07-29T15:18:01;5.88;;;3.47;;
7965;SDS011;4028;43.272;26.932;2022-07-29T15:20:27;4.25;;;3.72;;
7965;SDS011;4028;43.272;26.932;2022-07-29T15:22:52;5.15;;;3.50;;
7965;SDS011;4028;43.272;26.932;2022-07-29T15:25:20;5.63;;;3.70;;
7965;SDS011;4028;43.272;26.932;2022-07-29T15:27:46;4.32;;;3.85;;
7965;SDS011;4028;43.272;26.932;2022-07-29T15:30:12;4.32;;;3.40;;
7965;SDS011;4028;43.272;26.932;2022-07-29T15:32:37;5.32;;;3.65;;
7965;SDS011;4028;43.272;26.932;2022-07-29T15:35:03;4.20;;;3.78;;
7965;SDS011;4028;43.272;26.932;2022-07-29T15:37:28;3.75;;;3.20;;
7965;SDS011;4028;43.272;26.932;2022-07-29T15:39:54;5.05;;;3.83;;
7965;SDS011;4028;43.272;26.932;2022-07-29T15:42:19;8.40;;;3.55;;
7965;SDS011;4028;43.272;26.932;2022-07-29T15:44:45;6.97;;;3.75;;
7965;SDS011;4028;43.272;26.932;2022-07-29T15:47:10;5.25;;;3.50;;
7965;SDS011;4028;43.272;26.932;2022-07-29T15:49:37;3.92;;;3.20;;
7965;SDS011;4028;43.272;26.932;2022-07-29T15:52:06;4.82;;;3.33;;